Time;durP1;ratioP1;P1;durP2;ratioP2;P2;SDS_P1;SDS_P2;PMS_P1;PMS_P2;Temp;Humidity;BMP_temperature;BMP_pressure;BME280_temperature;BME280_humidity;BME280_pressure;Samples;Min_cycle;Max_cycle;Signal;HPM_P1;HPM_P2
2024/03/31 00:01:55;;;;;;;;;;;;;;;14.79;74.92;94744.38;10443677;28;20252;-81
2024/03/31 00:06:55;;;;;;;;;;;;;;;14.69;82.50;94739.94;10425459;28;20003;-78
2024/03/31 00:11:57;;;;;;;;;;;;;;;14.57;77.47;94738.78;10410316;28;20530;-77
2024/03/31 00:16:59;;;;;;;;;;;;;;;14.71;75.85;94742.34;10446287;28;20349;-82
2024/03/31 00:22:00;;;;;;;;;;;;;;;14.71;71.42;94720.72;10427437;28;20375;-81
2024/03/31 00:27:00;;;;;;;;;;;;;;;14.66;72.77;94727.00;10408680;28;19919;-76
2024/03/31 00:32:00;;;;;;;;;;;;;;;14.57;71.39;94717.97;10424627;28;20008;-83
2024/03/31 00:37:00;;;;;;;;;;;;;;;14.64;71.58;94725.72;10425658;28;19977;-76
2024/03/31 00:42:01;;;;;;;;;;;;;;;14.64;74.52;94729.22;10424087;28;19916;-75
2024/03/31 00:47:01;;;;;;;;;;;;;;;14.70;71.52;94724.50;10442854;28;19951;-83
2024/03/31 00:52:03;;;;;;;;;;;;;;;14.61;71.49;94726.25;10444931;28;20371;-82
2024/03/31 00:57:03;;;;;;;;;;;;;;;14.51;71.41;94717.25;10407768;28;20011;-75
2024/03/31 01:02:03;;;;;;;;;;;;;;;14.51;76.76;94725.38;10423352;28;19942;-77
2024/03/31 01:07:04;;;;;;;;;;;;;;;14.47;73.56;94712.72;10440537;28;20421;-77
2024/03/31 01:12:04;;;;;;;;;;;;;;;14.48;74.97;94715.16;10406279;28;20470;-78
2024/03/31 01:17:04;;;;;;;;;;;;;;;14.40;76.19;94732.06;10442974;28;20331;-81
2024/03/31 01:22:05;;;;;;;;;;;;;;;14.52;75.97;94731.56;10434723;28;19920;-76
2024/03/31 01:27:05;;;;;;;;;;;;;;;14.42;77.00;94737.97;10428026;28;19917;-75
2024/03/31 01:32:05;;;;;;;;;;;;;;;14.44;77.30;94746.59;10423989;28;20000;-76
2024/03/31 01:37:09;;;;;;;;;;;;;;;14.34;79.85;94744.88;10443151;28;19916;-79
2024/03/31 01:42:10;;;;;;;;;;;;;;;14.46;78.56;94749.78;10459360;28;19944;-81
2024/03/31 01:47:10;;;;;;;;;;;;;;;14.38;79.49;94745.06;10424155;28;20003;-80
2024/03/31 01:52:11;;;;;;;;;;;;;;;14.35;80.66;94749.16;10442824;28;20259;-81
2024/03/31 01:57:13;;;;;;;;;;;;;;;14.35;80.38;94756.47;10423439;28;19913;-80
2024/03/31 02:02:13;;;;;;;;;;;;;;;14.31;81.27;94758.97;10432582;28;19909;-79
2024/03/31 02:07:13;;;;;;;;;;;;;;;14.36;81.99;94755.38;10432051;28;19916;-80
2024/03/31 02:12:13;;;;;;;;;;;;;;;14.15;84.73;94753.00;10458839;28;20318;-80
2024/03/31 02:17:23;;;;;;;;;;;;;;;14.16;86.62;94753.81;10435715;28;19908;-81
2024/03/31 02:22:23;;;;;;;;;;;;;;;14.10;88.20;94763.91;10438840;28;19923;-83
2024/03/31 02:27:23;;;;;;;;;;;;;;;13.97;90.20;94770.06;10442154;28;19913;-77
2024/03/31 02:32:25;;;;;;;;;;;;;;;13.91;91.81;94765.81;10449480;28;19943;-76
2024/03/31 02:37:26;;;;;;;;;;;;;;;13.76;93.90;94759.56;10449423;28;19912;-82
2024/03/31 02:42:27;;;;;;;;;;;;;;;13.83;93.65;94775.41;10435822;28;19909;-78
2024/03/31 02:47:27;;;;;;;;;;;;;;;13.80;93.48;94779.47;10433949;28;19920;-84
2024/03/31 02:52:28;;;;;;;;;;;;;;;13.70;95.73;94787.72;10431836;28;19913;-77
2024/03/31 02:57:28;;;;;;;;;;;;;;;13.71;96.34;94788.53;10429171;28;20428;-76
2024/03/31 03:02:28;;;;;;;;;;;;;;;13.65;95.84;94783.19;10448897;28;19935;-79
2024/03/31 03:07:28;;;;;;;;;;;;;;;13.70;95.98;94792.31;10429093;28;19920;-79
2024/03/31 03:12:29;;;;;;;;;;;;;;;13.58;93.40;94785.47;10431917;28;19916;-80
2024/03/31 03:17:29;;;;;;;;;;;;;;;13.45;93.92;94794.25;10445661;28;19978;-77
2024/03/31 03:22:30;;;;;;;;;;;;;;;13.37;94.99;94795.72;10392863;28;20453;-74
2024/03/31 03:27:30;;;;;;;;;;;;;;;13.28;97.73;94798.22;10386971;28;20403;-74
2024/03/31 03:32:30;;;;;;;;;;;;;;;13.22;97.96;94793.19;10384929;28;20303;-75
2024/03/31 03:37:30;;;;;;;;;;;;;;;13.15;97.13;94796.22;10394945;28;20363;-80
2024/03/31 03:42:30;;;;;;;;;;;;;;;13.15;96.18;94798.91;10386756;28;20534;-77
2024/03/31 03:47:31;;;;;;;;;;;;;;;13.12;95.77;94811.09;10369980;28;19924;-80
2024/03/31 03:52:31;;;;;;;;;;;;;;;13.08;95.59;94815.44;10378083;28;19923;-79
2024/03/31 03:57:32;;;;;;;;;;;;;;;13.23;94.66;94813.66;10387253;28;19909;-78
2024/03/31 04:02:32;;;;;;;;;;;;;;;13.16;95.50;94832.91;10414842;28;19996;-79
2024/03/31 04:07:33;;;;;;;;;;;;;;;13.23;95.80;94832.53;10408012;28;19932;-78
2024/03/31 04:12:33;;;;;;;;;;;;;;;13.18;95.41;94835.31;10387817;28;19924;-77
2024/03/31 04:17:34;;;;;;;;;;;;;;;13.17;95.94;94834.50;10372037;28;19949;-81
2024/03/31 04:22:34;;;;;;;;;;;;;;;13.22;96.55;94847.94;10373872;28;19924;-79
2024/03/31 04:27:35;;;;;;;;;;;;;;;13.28;97.40;94846.00;10383825;28;19924;-75
2024/03/31 04:32:35;;;;;;;;;;;;;;;13.14;99.16;94841.31;10387976;28;19913;-81
2024/03/31 04:37:36;;;;;;;;;;;;;;;13.13;100.00;94852.34;10404464;28;19909;-79
2024/03/31 04:42:37;;;;;;;;;;;;;;;13.14;100.00;94846.69;10382624;28;19917;-80
2024/03/31 04:47:37;;;;;;;;;;;;;;;13.28;99.02;94843.28;10384231;28;19954;-82
2024/03/31 04:52:38;;;;;;;;;;;;;;;13.32;99.47;94861.31;10386433;28;20422;-76
2024/03/31 04:57:43;;;;;;;;;;;;;;;13.46;99.70;94864.16;10383882;28;19959;-85
2024/03/31 05:02:48;;;;;;;;;;;;;;;13.66;100.00;94879.34;10387631;28;19913;-85
2024/03/31 05:07:48;;;;;;;;;;;;;;;13.92;100.00;94897.13;10385587;28;19913;-81
2024/03/31 05:12:49;;;;;;;;;;;;;;;14.08;100.00;94903.94;10382837;28;20315;-81
2024/03/31 05:17:50;;;;;;;;;;;;;;;14.30;100.00;94902.53;10381487;28;19956;-76
2024/03/31 05:22:50;;;;;;;;;;;;;;;14.45;100.00;94907.72;10420666;28;19992;-82
2024/03/31 05:27:51;;;;;;;;;;;;;;;14.65;99.81;94909.34;10400594;28;20447;-81
2024/03/31 05:32:51;;;;;;;;;;;;;;;14.56;97.92;94913.78;10411177;28;19975;-75
2024/03/31 05:37:51;;;;;;;;;;;;;;;14.87;93.74;94905.22;10419990;28;19912;-77
2024/03/31 05:42:51;;;;;;;;;;;;;;;15.42;95.36;94903.72;10424677;28;19939;-76
2024/03/31 05:47:52;;;;;;;;;;;;;;;15.69;89.62;94902.94;10425520;28;19908;-78
2024/03/31 05:52:52;;;;;;;;;;;;;;;15.83;84.07;94901.03;10418691;28;19987;-75
2024/03/31 05:57:52;;;;;;;;;;;;;;;16.25;81.38;94901.00;10413901;28;20143;-77
2024/03/31 06:02:54;;;;;;;;;;;;;;;16.45;76.51;94899.75;10403622;28;19912;-79
2024/03/31 06:07:54;;;;;;;;;;;;;;;16.32;75.95;94890.53;10404500;28;19913;-74
2024/03/31 06:12:54;;;;;;;;;;;;;;;16.36;79.08;94896.16;10418815;28;19931;-80
2024/03/31 06:17:55;;;;;;;;;;;;;;;16.71;75.52;94893.72;10418705;28;20393;-76
2024/03/31 06:22:55;;;;;;;;;;;;;;;17.37;71.04;94882.31;10418384;28;20453;-79
2024/03/31 06:27:55;;;;;;;;;;;;;;;18.03;68.96;94904.16;10428477;28;20407;-78
2024/03/31 06:32:55;;;;;;;;;;;;;;;18.74;64.02;94888.69;10412686;28;19917;-77
2024/03/31 06:37:56;;;;;;;;;;;;;;;19.35;60.08;94885.09;10421460;28;19913;-78
2024/03/31 06:42:56;;;;;;;;;;;;;;;20.13;57.24;94879.31;10421041;28;19979;-75
2024/03/31 06:47:56;;;;;;;;;;;;;;;20.43;51.61;94878.50;10426233;28;19959;-76
2024/03/31 06:52:56;;;;;;;;;;;;;;;20.70;51.05;94895.50;10423368;28;20477;-75
2024/03/31 06:57:57;;;;;;;;;;;;;;;21.14;50.04;94895.88;10422695;28;19917;-78
2024/03/31 07:02:57;;;;;;;;;;;;;;;21.81;50.13;94887.59;10424240;28;19990;-82
2024/03/31 07:07:57;;;;;;;;;;;;;;;22.24;45.33;94877.22;10426751;28;19913;-80
2024/03/31 07:12:58;;;;;;;;;;;;;;;22.44;44.54;94887.28;10428825;28;19935;-74
2024/03/31 07:18:05;;;;;;;;;;;;;;;23.31;41.39;94895.22;10427675;28;20379;-81
2024/03/31 07:23:06;;;;;;;;;;;;;;;23.36;39.91;94884.00;10415296;28;19921;-79
2024/03/31 07:28:06;;;;;;;;;;;;;;;23.68;39.87;94897.72;10386260;28;20267;-81
2024/03/31 07:33:07;;;;;;;;;;;;;;;23.88;38.21;94891.19;10425103;28;19916;-81
2024/03/31 07:38:07;;;;;;;;;;;;;;;24.51;37.30;94886.75;10426830;28;19919;-80
2024/03/31 07:43:08;;;;;;;;;;;;;;;24.45;37.41;94890.94;10445203;28;19908;-83
2024/03/31 07:48:09;;;;;;;;;;;;;;;25.22;36.57;94881.16;10449328;28;19913;-77
2024/03/31 07:53:09;;;;;;;;;;;;;;;25.74;35.54;94878.19;10426509;28;19917;-82
2024/03/31 07:58:09;;;;;;;;;;;;;;;26.43;36.04;94872.59;10425581;28;20356;-79
2024/03/31 08:03:13;;;;;;;;;;;;;;;26.43;34.65;94869.06;10425491;28;19924;-75
2024/03/31 08:08:14;;;;;;;;;;;;;;;26.56;34.94;94866.88;10425330;28;20019;-76
2024/03/31 08:13:14;;;;;;;;;;;;;;;26.23;33.59;94865.59;10425717;28;19920;-78
2024/03/31 08:18:14;;;;;;;;;;;;;;;26.40;34.50;94858.75;10424618;28;20015;-75
2024/03/31 08:23:14;;;;;;;;;;;;;;;26.26;35.36;94868.44;10424799;28;20001;-81
2024/03/31 08:28:15;;;;;;;;;;;;;;;26.53;33.59;94856.59;10425508;28;19923;-82
2024/03/31 08:33:15;;;;;;;;;;;;;;;26.27;33.29;94850.72;10424062;28;19932;-76
2024/03/31 08:38:15;;;;;;;;;;;;;;;26.52;31.36;94847.50;10424695;28;19927;-78
2024/03/31 08:43:20;;;;;;;;;;;;;;;26.89;31.21;94835.00;10442574;28;20306;-78
2024/03/31 08:48:23;;;;;;;;;;;;;;;26.92;30.62;94835.06;10423956;28;19935;-76
2024/03/31 08:53:24;;;;;;;;;;;;;;;26.95;31.28;94834.28;10423480;28;19917;-79
2024/03/31 08:58:25;;;;;;;;;;;;;;;26.27;31.66;94838.91;10442826;28;20466;-82
2024/03/31 09:03:25;;;;;;;;;;;;;;;25.63;32.00;94836.72;10423518;28;19930;-81
2024/03/31 09:08:26;;;;;;;;;;;;;;;25.42;33.77;94843.47;10423070;28;20347;-76
2024/03/31 09:13:26;;;;;;;;;;;;;;;25.40;34.63;94831.22;10422808;28;19968;-81
2024/03/31 09:18:26;;;;;;;;;;;;;;;25.26;33.57;94826.22;10423107;28;20183;-75
2024/03/31 09:23:26;;;;;;;;;;;;;;;25.27;34.50;94827.81;10422169;28;19927;-76
2024/03/31 09:28:27;;;;;;;;;;;;;;;25.65;33.60;94822.56;10422188;28;20038;-75
2024/03/31 09:33:31;;;;;;;;;;;;;;;25.91;33.25;94816.31;10439765;28;19978;-77
2024/03/31 09:38:31;;;;;;;;;;;;;;;25.74;32.14;94807.41;10422742;28;19923;-82
2024/03/31 09:43:31;;;;;;;;;;;;;;;26.22;32.05;94804.22;10422560;28;20512;-82
2024/03/31 09:48:34;;;;;;;;;;;;;;;26.60;30.83;94793.28;10422681;28;19912;-85
2024/03/31 09:53:35;;;;;;;;;;;;;;;26.53;31.52;94773.91;10425497;28;19920;-84
2024/03/31 09:58:36;;;;;;;;;;;;;;;26.66;31.54;94782.72;10443443;28;19909;-81
2024/03/31 10:03:40;;;;;;;;;;;;;;;27.23;31.77;94782.56;10426167;28;20417;-84
2024/03/31 10:08:42;;;;;;;;;;;;;;;27.14;31.51;94782.88;10422688;28;19909;-74
2024/03/31 10:13:43;;;;;;;;;;;;;;;26.71;32.64;94774.13;10422112;28;19912;-82
2024/03/31 10:18:44;;;;;;;;;;;;;;;26.07;34.78;94770.16;10421444;28;19944;-76
2024/03/31 10:23:45;;;;;;;;;;;;;;;26.48;32.94;94774.22;10428819;28;20461;-76
2024/03/31 10:28:46;;;;;;;;;;;;;;;26.77;32.18;94762.38;10429740;28;20006;-75
2024/03/31 10:33:46;;;;;;;;;;;;;;;26.55;32.42;94760.53;10428235;28;19927;-74
2024/03/31 10:38:47;;;;;;;;;;;;;;;26.85;32.59;94760.50;10447988;28;19920;-86
2024/03/31 10:43:49;;;;;;;;;;;;;;;26.83;32.56;94760.09;10430752;28;19924;-78
2024/03/31 10:48:56;;;;;;;;;;;;;;;26.46;34.69;94760.00;10428077;28;19913;-80
2024/03/31 10:53:57;;;;;;;;;;;;;;;26.53;33.33;94766.44;10412122;28;19916;-81
2024/03/31 10:59:07;;;;;;;;;;;;;;;26.18;34.45;94770.31;10446175;28;19908;-76
2024/03/31 11:04:20;;;;;;;;;;;;;;;25.86;36.09;94775.34;10427914;28;19916;-76
2024/03/31 11:09:20;;;;;;;;;;;;;;;25.39;36.35;94780.09;10427864;28;19912;-79
2024/03/31 11:14:24;;;;;;;;;;;;;;;25.38;35.27;94775.75;10428279;28;19920;-81
2024/03/31 11:19:26;;;;;;;;;;;;;;;25.62;35.91;94780.09;10444702;28;20445;-80
2024/03/31 11:24:27;;;;;;;;;;;;;;;25.69;35.21;94777.44;10427905;28;20407;-78
2024/03/31 11:29:28;;;;;;;;;;;;;;;26.07;34.94;94756.38;10427022;28;19908;-75
2024/03/31 11:34:28;;;;;;;;;;;;;;;25.94;34.89;94760.50;10426462;28;19916;-76
2024/03/31 11:39:32;;;;;;;;;;;;;;;26.12;34.40;94746.22;10426963;28;20255;-84
2024/03/31 11:44:35;;;;;;;;;;;;;;;26.09;34.20;94739.50;10428042;28;19912;-80
2024/03/31 11:49:35;;;;;;;;;;;;;;;26.47;34.35;94736.81;10426149;28;20002;-76
2024/03/31 11:54:36;;;;;;;;;;;;;;;26.73;34.45;94735.97;10425728;28;20436;-81
2024/03/31 11:59:36;;;;;;;;;;;;;;;27.01;34.02;94743.72;10426886;28;19974;-77
2024/03/31 12:04:36;;;;;;;;;;;;;;;27.07;33.35;94728.44;10412879;28;19961;-75
2024/03/31 12:09:37;;;;;;;;;;;;;;;27.17;32.51;94706.81;10424967;28;19916;-80
2024/03/31 12:14:38;;;;;;;;;;;;;;;27.57;32.16;94699.69;10425614;28;19916;-79
2024/03/31 12:19:39;;;;;;;;;;;;;;;27.85;30.17;94684.47;10425262;28;20463;-83
2024/03/31 12:24:39;;;;;;;;;;;;;;;28.24;27.97;94687.44;10423854;28;19921;-75
2024/03/31 12:29:43;;;;;;;;;;;;;;;28.39;26.58;94674.47;10425133;28;19930;-75
2024/03/31 12:34:45;;;;;;;;;;;;;;;28.86;24.10;94662.75;10423784;28;20074;-77
2024/03/31 12:39:45;;;;;;;;;;;;;;;28.89;25.92;94653.69;10423850;28;20441;-82
2024/03/31 12:44:45;;;;;;;;;;;;;;;29.01;22.14;94649.72;10424252;28;19909;-77
2024/03/31 12:49:45;;;;;;;;;;;;;;;28.31;20.84;94642.47;10423844;28;20430;-77
2024/03/31 12:54:46;;;;;;;;;;;;;;;28.07;22.19;94630.94;10423162;28;19917;-82
2024/03/31 12:59:46;;;;;;;;;;;;;;;28.07;22.37;94628.16;10423749;28;19912;-76
2024/03/31 13:04:47;;;;;;;;;;;;;;;27.98;23.48;94613.91;10422965;28;19915;-80
2024/03/31 13:09:47;;;;;;;;;;;;;;;27.59;21.20;94622.81;10422848;28;19919;-74
2024/03/31 13:14:49;;;;;;;;;;;;;;;27.66;20.77;94613.75;10441378;28;19919;-76
2024/03/31 13:19:50;;;;;;;;;;;;;;;27.21;21.05;94595.34;10423953;28;19923;-79
2024/03/31 13:24:50;;;;;;;;;;;;;;;27.22;22.13;94607.16;10423184;28;20320;-79
2024/03/31 13:29:50;;;;;;;;;;;;;;;27.01;22.66;94599.53;10414200;28;20446;-80
2024/03/31 13:34:50;;;;;;;;;;;;;;;27.12;23.96;94589.34;10414922;28;19923;-82
2024/03/31 13:39:51;;;;;;;;;;;;;;;27.08;23.45;94572.75;10440997;28;20367;-76
2024/03/31 13:44:51;;;;;;;;;;;;;;;26.85;22.45;94580.47;10422432;28;20375;-75
2024/03/31 13:49:51;;;;;;;;;;;;;;;26.96;24.10;94589.63;10421521;28;20015;-76
2024/03/31 13:54:52;;;;;;;;;;;;;;;27.04;23.80;94582.97;10424267;28;20375;-78
2024/03/31 13:59:52;;;;;;;;;;;;;;;26.97;23.03;94590.41;10430054;28;19909;-76
2024/03/31 14:04:53;;;;;;;;;;;;;;;26.91;24.02;94585.25;10447908;28;19932;-75
2024/03/31 14:09:56;;;;;;;;;;;;;;;26.67;23.49;94583.84;10429762;28;19913;-76
2024/03/31 14:14:56;;;;;;;;;;;;;;;26.68;24.75;94577.19;10447348;28;19928;-76
2024/03/31 14:20:00;;;;;;;;;;;;;;;26.68;25.04;94579.94;10430177;28;19920;-80
2024/03/31 14:25:00;;;;;;;;;;;;;;;26.49;25.35;94578.19;10431369;28;19921;-78
2024/03/31 14:30:00;;;;;;;;;;;;;;;26.42;24.56;94573.38;10437842;28;20280;-79
2024/03/31 14:35:00;;;;;;;;;;;;;;;26.65;23.43;94563.34;10437548;28;20382;-75
2024/03/31 14:40:01;;;;;;;;;;;;;;;26.75;23.56;94570.94;10430578;28;19916;-80
2024/03/31 14:45:01;;;;;;;;;;;;;;;26.76;23.24;94565.06;10430648;28;19931;-73
2024/03/31 14:50:01;;;;;;;;;;;;;;;26.78;23.15;94559.94;10436033;28;19913;-78
2024/03/31 14:55:04;;;;;;;;;;;;;;;26.72;23.47;94558.72;10427879;28;19985;-80
2024/03/31 15:00:06;;;;;;;;;;;;;;;26.45;22.54;94563.56;10431952;28;20431;-80
2024/03/31 15:05:06;;;;;;;;;;;;;;;26.23;23.25;94554.31;10427533;28;19971;-79
2024/03/31 15:10:07;;;;;;;;;;;;;;;26.17;22.51;94558.59;10445525;28;20479;-75
2024/03/31 15:15:07;;;;;;;;;;;;;;;26.05;23.12;94556.88;10428125;28;19913;-81
2024/03/31 15:20:08;;;;;;;;;;;;;;;26.05;23.38;94559.63;10445456;28;19912;-83
2024/03/31 15:25:08;;;;;;;;;;;;;;;26.03;22.96;94565.53;10446004;28;19932;-82
2024/03/31 15:30:09;;;;;;;;;;;;;;;26.09;23.57;94572.28;10445158;28;19908;-75
2024/03/31 15:35:10;;;;;;;;;;;;;;;26.09;24.14;94568.72;10427482;28;20041;-82
2024/03/31 15:40:10;;;;;;;;;;;;;;;26.12;23.93;94572.69;10426823;28;20302;-75
2024/03/31 15:45:11;;;;;;;;;;;;;;;25.94;23.78;94570.50;10444995;28;19919;-75
2024/03/31 15:50:11;;;;;;;;;;;;;;;26.02;24.04;94580.44;10444555;28;19913;-78
2024/03/31 15:55:11;;;;;;;;;;;;;;;26.01;23.95;94573.38;10444231;28;19920;-76
2024/03/31 16:00:12;;;;;;;;;;;;;;;25.98;23.82;94574.06;10426180;28;19916;-75
2024/03/31 16:05:13;;;;;;;;;;;;;;;25.87;23.16;94573.16;10425317;28;20347;-77
2024/03/31 16:10:13;;;;;;;;;;;;;;;25.82;24.02;94585.31;10425375;28;19909;-76
2024/03/31 16:15:13;;;;;;;;;;;;;;;25.68;24.60;94583.19;10444066;28;19912;-80
2024/03/31 16:20:16;;;;;;;;;;;;;;;25.49;24.43;94589.59;10423872;28;20351;-77
2024/03/31 16:25:17;;;;;;;;;;;;;;;25.28;24.91;94592.03;10425372;28;19921;-77
2024/03/31 16:30:17;;;;;;;;;;;;;;;25.15;26.15;94595.00;10424745;28;20387;-76
2024/03/31 16:35:19;;;;;;;;;;;;;;;24.89;25.20;94590.28;10424229;28;19917;-83
2024/03/31 16:40:19;;;;;;;;;;;;;;;24.69;25.78;94598.59;10408183;28;19998;-75
2024/03/31 16:45:20;;;;;;;;;;;;;;;24.54;25.78;94594.78;10408588;28;20463;-83
2024/03/31 16:50:20;;;;;;;;;;;;;;;24.37;25.41;94614.50;10426839;28;20023;-76
2024/03/31 16:55:20;;;;;;;;;;;;;;;24.17;25.82;94602.78;10423943;28;19917;-76
2024/03/31 17:00:20;;;;;;;;;;;;;;;24.04;25.61;94610.38;10441762;28;19916;-75
2024/03/31 17:05:21;;;;;;;;;;;;;;;23.98;25.68;94620.84;10423544;28;20011;-77
2024/03/31 17:10:21;;;;;;;;;;;;;;;23.91;25.58;94617.19;10423671;28;20379;-76
2024/03/31 17:15:22;;;;;;;;;;;;;;;23.81;25.99;94624.78;10390981;28;19925;-77
2024/03/31 17:20:23;;;;;;;;;;;;;;;23.71;25.68;94615.19;10413259;28;20318;-81
2024/03/31 17:25:23;;;;;;;;;;;;;;;23.60;26.06;94608.69;10423635;28;19921;-76
2024/03/31 17:30:23;;;;;;;;;;;;;;;23.60;25.98;94627.88;10440895;28;20303;-75
2024/03/31 17:35:24;;;;;;;;;;;;;;;23.49;25.84;94624.13;10441571;28;19963;-76
2024/03/31 17:40:24;;;;;;;;;;;;;;;23.46;26.15;94631.13;10422831;28;19917;-76
2024/03/31 17:45:24;;;;;;;;;;;;;;;23.40;26.10;94640.78;10422132;28;20489;-76
2024/03/31 17:50:26;;;;;;;;;;;;;;;23.28;26.43;94643.63;10441451;28;19909;-76
2024/03/31 17:55:27;;;;;;;;;;;;;;;23.06;26.76;94645.84;10440993;28;19927;-78
2024/03/31 18:00:27;;;;;;;;;;;;;;;22.95;26.89;94656.53;10420054;28;19917;-79
2024/03/31 18:05:28;;;;;;;;;;;;;;;22.89;26.90;94655.22;10440414;28;19919;-76
2024/03/31 18:10:28;;;;;;;;;;;;;;;22.74;27.57;94656.03;10412752;28;19931;-81
2024/03/31 18:15:28;;;;;;;;;;;;;;;22.70;27.47;94647.69;10417803;28;20475;-80
2024/03/31 18:20:28;;;;;;;;;;;;;;;22.70;27.48;94661.41;10421922;28;19912;-76
2024/03/31 18:25:29;;;;;;;;;;;;;;;22.72;27.74;94656.38;10427049;28;20273;-77
2024/03/31 18:30:29;;;;;;;;;;;;;;;22.70;27.42;94672.34;10425630;28;20382;-78
2024/03/31 18:35:30;;;;;;;;;;;;;;;22.64;28.30;94666.34;10420867;28;19917;-83
2024/03/31 18:40:31;;;;;;;;;;;;;;;22.51;28.80;94679.31;10427337;28;20750;-78
2024/03/31 18:45:32;;;;;;;;;;;;;;;22.49;29.32;94672.59;10428501;28;19921;-83
2024/03/31 18:50:33;;;;;;;;;;;;;;;22.36;30.05;94674.63;10411023;28;19913;-79
2024/03/31 18:55:33;;;;;;;;;;;;;;;22.27;30.20;94668.47;10426527;28;20334;-80
2024/03/31 19:00:35;;;;;;;;;;;;;;;22.15;30.13;94674.81;10423017;28;20375;-83
2024/03/31 19:05:35;;;;;;;;;;;;;;;22.12;30.07;94670.03;10421208;28;19927;-80
2024/03/31 19:10:36;;;;;;;;;;;;;;;21.99;30.80;94678.28;10424286;28;19921;-82
2024/03/31 19:15:36;;;;;;;;;;;;;;;21.97;30.82;94675.09;10421054;28;19917;-76
2024/03/31 19:20:37;;;;;;;;;;;;;;;21.82;30.98;94684.84;10422973;28;19927;-83
2024/03/31 19:25:37;;;;;;;;;;;;;;;21.80;30.59;94694.53;10439300;28;19978;-83
2024/03/31 19:30:37;;;;;;;;;;;;;;;21.69;31.66;94688.75;10425071;28;19958;-81
2024/03/31 19:35:39;;;;;;;;;;;;;;;21.51;33.49;94688.94;10422998;28;19942;-80
2024/03/31 19:40:39;;;;;;;;;;;;;;;21.32;34.85;94686.00;10421717;28;19923;-79
2024/03/31 19:45:39;;;;;;;;;;;;;;;21.19;35.45;94692.66;10423008;28;19930;-78
2024/03/31 19:50:40;;;;;;;;;;;;;;;21.02;35.11;94707.34;10424711;28;19917;-82
2024/03/31 19:55:40;;;;;;;;;;;;;;;20.97;35.20;94711.88;10437289;28;19955;-77
2024/03/31 20:00:40;;;;;;;;;;;;;;;20.79;36.03;94718.66;10439671;28;19924;-80
2024/03/31 20:05:40;;;;;;;;;;;;;;;20.60;37.08;94719.97;10423884;28;20276;-80
2024/03/31 20:10:42;;;;;;;;;;;;;;;20.17;37.64;94702.09;10408352;28;19920;-79
2024/03/31 20:15:44;;;;;;;;;;;;;;;20.15;37.51;94707.88;10424555;28;19922;-81
2024/03/31 20:20:48;;;;;;;;;;;;;;;19.90;38.35;94706.16;10409482;28;19916;-80
2024/03/31 20:25:52;;;;;;;;;;;;;;;19.66;38.36;94701.34;10416108;28;20368;-81
2024/03/31 20:30:53;;;;;;;;;;;;;;;19.47;38.01;94703.38;10440099;28;19919;-79
2024/03/31 20:35:54;;;;;;;;;;;;;;;19.58;38.39;94703.81;10424436;28;19923;-78
2024/03/31 20:40:57;;;;;;;;;;;;;;;19.55;38.74;94704.47;10423063;28;19919;-76
2024/03/31 20:46:02;;;;;;;;;;;;;;;19.50;38.49;94701.16;10402812;28;19919;-80
2024/03/31 20:51:06;;;;;;;;;;;;;;;19.42;37.74;94711.78;10418573;28;20377;-76
2024/03/31 20:56:09;;;;;;;;;;;;;;;19.48;38.55;94731.47;10402007;28;19913;-76
2024/03/31 21:01:14;;;;;;;;;;;;;;;19.45;41.18;94727.47;10414038;28;19913;-82
2024/03/31 21:06:17;;;;;;;;;;;;;;;19.25;44.16;94728.22;10442219;28;19924;-83
2024/03/31 21:11:18;;;;;;;;;;;;;;;19.03;42.71;94716.44;10423651;28;20410;-75
2024/03/31 21:16:19;;;;;;;;;;;;;;;18.77;44.75;94719.25;10423585;28;19969;-77
2024/03/31 21:21:20;;;;;;;;;;;;;;;18.42;46.92;94724.81;10424055;28;19963;-76
2024/03/31 21:26:21;;;;;;;;;;;;;;;18.03;52.29;94727.41;10441457;28;20006;-77
2024/03/31 21:31:21;;;;;;;;;;;;;;;18.08;51.37;94718.28;10422930;28;19909;-76
2024/03/31 21:36:22;;;;;;;;;;;;;;;17.89;55.25;94730.25;10449998;28;20284;-74
2024/03/31 21:41:22;;;;;;;;;;;;;;;17.56;57.64;94747.00;10423052;28;20007;-75
2024/03/31 21:46:24;;;;;;;;;;;;;;;17.67;60.73;94744.00;10422653;28;19917;-77
2024/03/31 21:51:24;;;;;;;;;;;;;;;17.70;62.58;94746.06;10412224;28;19912;-81
2024/03/31 21:56:27;;;;;;;;;;;;;;;17.57;63.48;94754.03;10440505;28;19913;-83
2024/03/31 22:01:30;;;;;;;;;;;;;;;17.58;63.42;94780.09;10439610;28;20004;-79
2024/03/31 22:06:32;;;;;;;;;;;;;;;17.68;65.21;94756.44;10440888;28;19919;-78
2024/03/31 22:11:34;;;;;;;;;;;;;;;17.48;65.64;94760.56;10423699;28;20007;-81
2024/03/31 22:16:34;;;;;;;;;;;;;;;17.24;67.69;94754.44;10425046;28;19919;-77
2024/03/31 22:21:34;;;;;;;;;;;;;;;16.92;66.75;94759.09;10448414;28;19931;-76
2024/03/31 22:26:34;;;;;;;;;;;;;;;16.99;71.59;94766.78;10430425;28;20341;-77
2024/03/31 22:31:35;;;;;;;;;;;;;;;16.90;69.46;94766.78;10429176;28;20315;-75
2024/03/31 22:36:35;;;;;;;;;;;;;;;16.87;71.27;94766.53;10430085;28;19996;-76
2024/03/31 22:41:35;;;;;;;;;;;;;;;16.77;69.75;94767.63;10416041;28;19934;-77
2024/03/31 22:46:36;;;;;;;;;;;;;;;16.62;73.40;94766.13;10407862;28;19917;-74
2024/03/31 22:51:36;;;;;;;;;;;;;;;16.66;72.03;94763.56;10429157;28;19913;-76
2024/03/31 22:56:36;;;;;;;;;;;;;;;16.61;71.75;94771.88;10417456;28;19913;-74
2024/03/31 23:01:36;;;;;;;;;;;;;;;16.56;72.66;94783.63;10425376;28;19970;-78
2024/03/31 23:06:37;;;;;;;;;;;;;;;16.54;71.93;94788.56;10415304;28;20353;-77
2024/03/31 23:11:38;;;;;;;;;;;;;;;16.52;72.43;94783.47;10410193;28;19951;-75
2024/03/31 23:16:39;;;;;;;;;;;;;;;16.43;72.62;94781.81;10445942;28;20379;-78
2024/03/31 23:21:39;;;;;;;;;;;;;;;16.48;70.50;94770.81;10427110;28;19931;-77
2024/03/31 23:26:39;;;;;;;;;;;;;;;16.33;72.14;94772.78;10428569;28;20460;-79
2024/03/31 23:31:40;;;;;;;;;;;;;;;16.47;71.83;94780.06;10445151;28;19912;-78
2024/03/31 23:36:41;;;;;;;;;;;;;;;16.43;68.60;94785.31;10444170;28;19971;-75
2024/03/31 23:41:42;;;;;;;;;;;;;;;16.49;67.69;94785.97;10423905;28;19927;-77
2024/03/31 23:46:42;;;;;;;;;;;;;;;16.46;67.09;94781.19;10426472;28;19909;-77
2024/03/31 23:51:42;;;;;;;;;;;;;;;16.45;71.41;94785.81;10426730;28;20374;-75
2024/03/31 23:56:42;;;;;;;;;;;;;;;16.38;70.07;94778.09;10426093;28;19920;-78
